Time;durP1;ratioP1;P1;durP2;ratioP2;P2;SDS_P1;SDS_P2;PMS_P1;PMS_P2;Temp;Humidity;BMP_temperature;BMP_pressure;BME280_temperature;BME280_humidity;BME280_pressure;Samples;Min_cycle;Max_cycle;Signal;HPM_P1;HPM_P2
2022/08/02 00:01:40;;;;;;;0.38;0.38;;;;;;;;;;7385342;19;21319;-66
2022/08/02 00:04:06;;;;;;;0.85;0.85;;;;;;;;;;7381519;19;20449;-66
2022/08/02 00:06:31;;;;;;;0.38;0.38;;;;;;;;;;7387409;19;20189;-66
2022/08/02 00:08:56;;;;;;;0.28;0.28;;;;;;;;;;7382254;19;20121;-65
2022/08/02 00:11:22;;;;;;;0.30;0.30;;;;;;;;;;7383405;19;20136;-66
2022/08/02 00:13:47;;;;;;;0.20;0.20;;;;;;;;;;7381423;19;20117;-66
2022/08/02 00:16:13;;;;;;;0.93;0.85;;;;;;;;;;7380852;19;20125;-66
2022/08/02 00:18:38;;;;;;;0.70;0.70;;;;;;;;;;7385244;19;20124;-66
2022/08/02 00:21:04;;;;;;;0.65;0.65;;;;;;;;;;7383996;19;20145;-66
2022/08/02 00:23:29;;;;;;;0.30;0.30;;;;;;;;;;7376726;19;20124;-66
2022/08/02 00:25:54;;;;;;;0.45;0.45;;;;;;;;;;7378420;19;20150;-66
2022/08/02 00:28:20;;;;;;;2.05;0.63;;;;;;;;;;7383848;19;20162;-66
2022/08/02 00:30:45;;;;;;;0.38;0.38;;;;;;;;;;7389686;19;20618;-65
2022/08/02 00:33:10;;;;;;;0.40;0.40;;;;;;;;;;7381044;19;20216;-66
2022/08/02 00:35:36;;;;;;;0.30;0.30;;;;;;;;;;7383678;19;20446;-66
2022/08/02 00:38:02;;;;;;;0.40;0.40;;;;;;;;;;7380095;19;20154;-66
2022/08/02 00:40:28;;;;;;;0.57;0.50;;;;;;;;;;7382426;19;20125;-65
2022/08/02 00:43:20;;;;;;;0.88;0.50;;;;;;;;;;7383639;19;20149;-66
2022/08/02 00:45:45;;;;;;;0.50;0.50;;;;;;;;;;7380704;19;20173;-66
2022/08/02 00:48:11;;;;;;;0.30;0.30;;;;;;;;;;7380714;19;20576;-65
2022/08/02 00:50:37;;;;;;;0.60;0.60;;;;;;;;;;7387187;19;20595;-66
2022/08/02 00:53:03;;;;;;;0.22;0.22;;;;;;;;;;7377595;19;20149;-66
2022/08/02 00:55:29;;;;;;;0.75;0.75;;;;;;;;;;7383617;19;20123;-66
2022/08/02 00:57:54;;;;;;;0.40;0.40;;;;;;;;;;7382015;19;20124;-66
2022/08/02 01:00:20;;;;;;;0.75;0.75;;;;;;;;;;7386151;19;20137;-66
2022/08/02 01:02:46;;;;;;;3.80;0.47;;;;;;;;;;7384088;19;20145;-66
2022/08/02 01:05:11;;;;;;;0.60;0.60;;;;;;;;;;7382335;19;20121;-64
2022/08/02 01:07:37;;;;;;;0.38;0.38;;;;;;;;;;7386769;19;20617;-65
2022/08/02 01:10:03;;;;;;;1.05;0.80;;;;;;;;;;7380426;19;20140;-66
2022/08/02 01:12:28;;;;;;;0.90;0.90;;;;;;;;;;7378294;19;20189;-66
2022/08/02 01:14:56;;;;;;;1.95;0.82;;;;;;;;;;7378178;19;20121;-66
2022/08/02 01:17:48;;;;;;;0.40;0.40;;;;;;;;;;7389228;19;20140;-64
2022/08/02 01:20:40;;;;;;;0.32;0.32;;;;;;;;;;7384686;19;20125;-65
2022/08/02 01:23:31;;;;;;;0.30;0.30;;;;;;;;;;7383297;19;20155;-65
2022/08/02 01:26:25;;;;;;;0.30;0.30;;;;;;;;;;7382841;19;20129;-66
2022/08/02 01:28:59;;;;;;;0.30;0.30;;;;;;;;;;7382427;19;20129;-66
2022/08/02 01:31:41;;;;;;;4.95;2.13;;;;;;;;;;7377523;19;20155;-66
2022/08/02 01:34:28;;;;;;;0.45;0.45;;;;;;;;;;7382177;19;20129;-66
2022/08/02 01:37:10;;;;;;;2.20;1.05;;;;;;;;;;7374886;19;20524;-66
2022/08/02 01:39:37;;;;;;;0.40;0.40;;;;;;;;;;7379715;19;20121;-66
2022/08/02 01:42:03;;;;;;;0.30;0.30;;;;;;;;;;7386710;19;20168;-65
2022/08/02 01:44:32;;;;;;;0.40;0.40;;;;;;;;;;7382939;19;20180;-66
2022/08/02 01:47:08;;;;;;;0.30;0.30;;;;;;;;;;7381954;19;20120;-66
2022/08/02 01:49:34;;;;;;;0.38;0.38;;;;;;;;;;7373308;19;20132;-66
2022/08/02 01:52:21;;;;;;;0.38;0.38;;;;;;;;;;7378049;19;20169;-66
2022/08/02 01:54:51;;;;;;;0.40;0.40;;;;;;;;;;7381078;19;20422;-66
2022/08/02 01:57:18;;;;;;;0.30;0.30;;;;;;;;;;7379383;19;20445;-66
2022/08/02 01:59:44;;;;;;;0.50;0.50;;;;;;;;;;7379440;19;20121;-66
2022/08/02 02:02:10;;;;;;;0.63;0.63;;;;;;;;;;7371601;19;20690;-66
2022/08/02 02:04:36;;;;;;;0.30;0.30;;;;;;;;;;7370510;19;20124;-66
2022/08/02 02:07:03;;;;;;;0.68;0.68;;;;;;;;;;7374443;19;20173;-65
2022/08/02 02:09:30;;;;;;;0.40;0.40;;;;;;;;;;7377867;19;20133;-66
2022/08/02 02:11:58;;;;;;;0.30;0.30;;;;;;;;;;7366980;19;20145;-66
2022/08/02 02:14:24;;;;;;;0.32;0.32;;;;;;;;;;7375512;19;20503;-66
2022/08/02 02:16:49;;;;;;;0.45;0.45;;;;;;;;;;7376923;19;20117;-65
2022/08/02 02:19:16;;;;;;;0.40;0.40;;;;;;;;;;7388619;19;20125;-66
2022/08/02 02:21:41;;;;;;;0.50;0.50;;;;;;;;;;7376702;19;20152;-65
2022/08/02 02:24:07;;;;;;;0.77;0.77;;;;;;;;;;7380742;19;20120;-66
2022/08/02 02:26:34;;;;;;;0.40;0.40;;;;;;;;;;7373881;19;20583;-66
2022/08/02 02:29:01;;;;;;;0.50;0.50;;;;;;;;;;7377131;19;20145;-66
2022/08/02 02:31:29;;;;;;;0.40;0.40;;;;;;;;;;7381464;19;20163;-66
2022/08/02 02:34:03;;;;;;;0.30;0.30;;;;;;;;;;7380457;19;20121;-66
2022/08/02 02:36:29;;;;;;;0.40;0.40;;;;;;;;;;7374093;19;20125;-65
2022/08/02 02:38:56;;;;;;;0.30;0.30;;;;;;;;;;7376663;19;20596;-66
2022/08/02 02:41:22;;;;;;;0.30;0.30;;;;;;;;;;7373079;19;20163;-66
2022/08/02 02:43:48;;;;;;;0.40;0.40;;;;;;;;;;7373741;19;20117;-66
2022/08/02 02:46:15;;;;;;;0.93;0.85;;;;;;;;;;7380582;19;20120;-66
2022/08/02 02:48:41;;;;;;;0.30;0.30;;;;;;;;;;7379126;19;20162;-66
2022/08/02 02:51:07;;;;;;;0.63;0.63;;;;;;;;;;7370280;19;20137;-65
2022/08/02 02:53:34;;;;;;;0.30;0.30;;;;;;;;;;7376001;19;20157;-66
2022/08/02 02:56:00;;;;;;;0.30;0.30;;;;;;;;;;7374626;19;20137;-66
2022/08/02 02:58:25;;;;;;;0.40;0.40;;;;;;;;;;7378334;19;20120;-66
2022/08/02 03:03:36;;;;;;;0.30;0.30;;;;;;;;;;7376595;19;20162;-64
2022/08/02 03:06:01;;;;;;;0.73;0.73;;;;;;;;;;7375224;19;20153;-66
2022/08/02 03:08:27;;;;;;;0.30;0.30;;;;;;;;;;7378638;19;20655;-66
2022/08/02 03:10:53;;;;;;;0.40;0.40;;;;;;;;;;7364468;19;20550;-65
2022/08/02 03:13:18;;;;;;;0.30;0.30;;;;;;;;;;7376520;19;20149;-66
2022/08/02 03:15:45;;;;;;;0.88;0.52;;;;;;;;;;7370496;19;20121;-65
2022/08/02 03:18:28;;;;;;;2.15;0.93;;;;;;;;;;7367267;19;20137;-66
2022/08/02 03:20:58;;;;;;;0.30;0.30;;;;;;;;;;7374526;19;20144;-66
2022/08/02 03:23:23;;;;;;;0.45;0.45;;;;;;;;;;7369534;19;20121;-65
2022/08/02 03:25:48;;;;;;;0.30;0.30;;;;;;;;;;7375790;19;20125;-66
2022/08/02 03:28:14;;;;;;;0.85;0.85;;;;;;;;;;7384891;19;20125;-66
2022/08/02 03:30:39;;;;;;;0.85;0.85;;;;;;;;;;7375481;19;20154;-65
2022/08/02 03:33:04;;;;;;;2.45;0.43;;;;;;;;;;7384025;19;20145;-66
2022/08/02 03:35:30;;;;;;;0.20;0.20;;;;;;;;;;7381647;19;20129;-65
2022/08/02 03:37:56;;;;;;;0.40;0.40;;;;;;;;;;7379422;19;20149;-66
2022/08/02 03:40:22;;;;;;;0.50;0.50;;;;;;;;;;7382817;19;20502;-65
2022/08/02 03:42:48;;;;;;;0.30;0.30;;;;;;;;;;7382020;19;20149;-66
2022/08/02 03:45:14;;;;;;;0.30;0.30;;;;;;;;;;7379327;19;20517;-66
2022/08/02 03:47:39;;;;;;;0.85;0.60;;;;;;;;;;7388081;19;20134;-64
2022/08/02 03:50:11;;;;;;;0.93;0.93;;;;;;;;;;7381349;19;20169;-66
2022/08/02 03:52:37;;;;;;;1.02;0.98;;;;;;;;;;7376115;19;20583;-66
2022/08/02 03:55:03;;;;;;;0.38;0.38;;;;;;;;;;7371653;19;20117;-65
2022/08/02 03:57:28;;;;;;;0.32;0.32;;;;;;;;;;7378429;19;20180;-65
2022/08/02 03:59:54;;;;;;;0.40;0.40;;;;;;;;;;7388860;19;20145;-66
2022/08/02 04:02:19;;;;;;;0.30;0.30;;;;;;;;;;7375545;19;20148;-66
2022/08/02 04:04:44;;;;;;;0.73;0.73;;;;;;;;;;7383138;19;20120;-66
2022/08/02 04:07:10;;;;;;;0.43;0.43;;;;;;;;;;7381080;19;20113;-66
2022/08/02 04:09:35;;;;;;;0.30;0.30;;;;;;;;;;7387422;19;20463;-64
2022/08/02 04:12:00;;;;;;;0.82;0.82;;;;;;;;;;7381733;19;20225;-66
2022/08/02 04:14:26;;;;;;;0.40;0.40;;;;;;;;;;7380341;19;20705;-66
2022/08/02 04:16:53;;;;;;;0.30;0.30;;;;;;;;;;7388377;19;20174;-65
2022/08/02 04:19:29;;;;;;;0.30;0.30;;;;;;;;;;7380954;19;20121;-66
2022/08/02 04:21:57;;;;;;;0.35;0.35;;;;;;;;;;7375784;19;20149;-66
2022/08/02 04:24:26;;;;;;;0.40;0.40;;;;;;;;;;7379334;19;20109;-65
2022/08/02 04:26:54;;;;;;;0.50;0.50;;;;;;;;;;7379825;19;20125;-66
2022/08/02 04:29:19;;;;;;;0.40;0.40;;;;;;;;;;7374274;19;20121;-66
2022/08/02 04:31:45;;;;;;;0.55;0.55;;;;;;;;;;7378631;19;22354;-66
2022/08/02 04:34:10;;;;;;;0.30;0.30;;;;;;;;;;7379611;19;20117;-66
2022/08/02 04:36:36;;;;;;;0.30;0.30;;;;;;;;;;7383877;19;20141;-65
2022/08/02 04:39:02;;;;;;;0.30;0.30;;;;;;;;;;7380639;19;20219;-65
2022/08/02 04:41:45;;;;;;;0.40;0.40;;;;;;;;;;7383539;19;20562;-66
2022/08/02 04:44:11;;;;;;;0.30;0.30;;;;;;;;;;7381873;19;20540;-65
2022/08/02 04:46:37;;;;;;;0.85;0.85;;;;;;;;;;7384309;19;20123;-66
2022/08/02 16:40:03;;;;;;;0.30;0.30;;;;;;;;;;7391432;19;20215;-68
2022/08/02 16:42:29;;;;;;;0.60;0.60;;;;;;;;;;7380336;19;20164;-67
2022/08/02 16:44:54;;;;;;;0.70;0.70;;;;;;;;;;7385832;19;20151;-68
2022/08/02 16:47:20;;;;;;;0.47;0.47;;;;;;;;;;7388796;19;20127;-68
2022/08/02 16:49:45;;;;;;;0.50;0.50;;;;;;;;;;7386164;19;20133;-68
2022/08/02 16:52:10;;;;;;;0.50;0.50;;;;;;;;;;7389300;19;20144;-68
2022/08/02 16:54:37;;;;;;;0.60;0.60;;;;;;;;;;7389678;19;20176;-68
2022/08/02 16:57:03;;;;;;;0.40;0.40;;;;;;;;;;7387998;19;20142;-68
2022/08/02 16:59:31;;;;;;;0.75;0.75;;;;;;;;;;7391925;19;20138;-67
2022/08/02 17:01:56;;;;;;;0.50;0.50;;;;;;;;;;7388656;19;20153;-68
2022/08/02 17:04:22;;;;;;;0.30;0.30;;;;;;;;;;7390818;19;20141;-68
2022/08/02 17:06:47;;;;;;;0.30;0.30;;;;;;;;;;7391782;19;20158;-68
2022/08/02 17:09:12;;;;;;;0.30;0.30;;;;;;;;;;7388725;19;20189;-68
2022/08/02 17:11:37;;;;;;;0.30;0.30;;;;;;;;;;7388286;19;20180;-68
2022/08/02 17:14:03;;;;;;;0.30;0.30;;;;;;;;;;7392262;19;20141;-68
2022/08/02 17:16:28;;;;;;;0.30;0.30;;;;;;;;;;7390439;19;20491;-68
2022/08/02 17:18:54;;;;;;;0.35;0.35;;;;;;;;;;7392776;19;20117;-68
2022/08/02 17:21:19;;;;;;;0.40;0.40;;;;;;;;;;7388529;19;20141;-68
2022/08/02 17:23:44;;;;;;;0.30;0.30;;;;;;;;;;7388058;19;20772;-68
2022/08/02 17:26:10;;;;;;;0.30;0.30;;;;;;;;;;7388302;19;20141;-68
2022/08/02 17:28:35;;;;;;;0.30;0.30;;;;;;;;;;7390256;19;20131;-68
2022/08/02 17:31:00;;;;;;;0.40;0.40;;;;;;;;;;7391080;19;20121;-68
2022/08/02 17:33:26;;;;;;;0.30;0.30;;;;;;;;;;7391119;19;20152;-68
2022/08/02 17:35:51;;;;;;;0.50;0.50;;;;;;;;;;7389250;19;20519;-68
2022/08/02 17:38:17;;;;;;;0.30;0.30;;;;;;;;;;7390268;19;20591;-68
2022/08/02 17:40:42;;;;;;;0.30;0.30;;;;;;;;;;7388738;19;20125;-68
2022/08/02 17:43:07;;;;;;;1.10;0.70;;;;;;;;;;7389689;19;20145;-69
2022/08/02 17:45:33;;;;;;;0.30;0.30;;;;;;;;;;7389265;19;20699;-69
2022/08/02 17:47:58;;;;;;;0.30;0.30;;;;;;;;;;7389918;19;20137;-68
2022/08/02 17:50:23;;;;;;;0.50;0.50;;;;;;;;;;7390866;19;20138;-69
2022/08/02 17:52:49;;;;;;;0.70;0.70;;;;;;;;;;7388233;19;20549;-69
2022/08/02 17:55:14;;;;;;;0.30;0.30;;;;;;;;;;7392056;19;20177;-69
2022/08/02 17:57:39;;;;;;;0.32;0.32;;;;;;;;;;7392159;19;20123;-69
2022/08/02 18:00:08;;;;;;;0.60;0.60;;;;;;;;;;7383733;19;20149;-68
2022/08/02 18:02:34;;;;;;;0.30;0.30;;;;;;;;;;7389320;19;20163;-68
2022/08/02 18:04:59;;;;;;;0.30;0.30;;;;;;;;;;7388467;19;20129;-68
2022/08/02 18:07:24;;;;;;;0.55;0.55;;;;;;;;;;7388782;19;20523;-68
2022/08/02 18:09:50;;;;;;;0.40;0.40;;;;;;;;;;7392888;19;20120;-68
2022/08/02 18:12:16;;;;;;;0.30;0.30;;;;;;;;;;7388610;19;20137;-68
2022/08/02 18:14:43;;;;;;;0.60;0.60;;;;;;;;;;7391197;19;20611;-68
2022/08/02 18:17:09;;;;;;;0.50;0.50;;;;;;;;;;7388780;19;20138;-68
2022/08/02 18:19:34;;;;;;;0.40;0.40;;;;;;;;;;7389855;19;20156;-68
2022/08/02 18:22:01;;;;;;;0.30;0.30;;;;;;;;;;7381827;19;20141;-68
2022/08/02 18:24:27;;;;;;;0.50;0.50;;;;;;;;;;7387774;19;20611;-69
2022/08/02 18:26:52;;;;;;;0.30;0.30;;;;;;;;;;7389103;19;20151;-69
2022/08/02 18:29:17;;;;;;;0.50;0.50;;;;;;;;;;7391048;19;20578;-68
2022/08/02 18:31:43;;;;;;;0.60;0.60;;;;;;;;;;7389534;19;20514;-69
2022/08/02 18:34:08;;;;;;;0.28;0.28;;;;;;;;;;7389096;19;20128;-68
2022/08/02 18:36:33;;;;;;;7.43;0.60;;;;;;;;;;7389277;19;20137;-69
2022/08/02 18:39:00;;;;;;;1.52;0.63;;;;;;;;;;7390298;19;20181;-69
2022/08/02 18:41:25;;;;;;;0.20;0.20;;;;;;;;;;7389064;19;20145;-69
2022/08/02 18:43:50;;;;;;;0.40;0.40;;;;;;;;;;7389066;19;20121;-69
2022/08/02 18:46:16;;;;;;;0.32;0.32;;;;;;;;;;7391473;19;20682;-69
2022/08/02 18:48:42;;;;;;;0.50;0.50;;;;;;;;;;7392443;19;20900;-69
2022/08/02 18:51:08;;;;;;;0.45;0.43;;;;;;;;;;7388020;19;20130;-69
2022/08/02 18:53:35;;;;;;;0.30;0.30;;;;;;;;;;7382443;19;20587;-69
2022/08/02 18:56:00;;;;;;;0.20;0.20;;;;;;;;;;7386631;19;20125;-69
2022/08/02 18:58:25;;;;;;;0.50;0.50;;;;;;;;;;7392035;19;20135;-69
2022/08/02 19:00:51;;;;;;;0.30;0.30;;;;;;;;;;7395221;19;20157;-69
2022/08/02 19:03:17;;;;;;;0.20;0.20;;;;;;;;;;7395396;19;20149;-69
2022/08/02 19:05:43;;;;;;;0.40;0.40;;;;;;;;;;7394794;19;20591;-69
2022/08/02 19:08:09;;;;;;;0.30;0.30;;;;;;;;;;7395573;19;20200;-69
2022/08/02 19:10:38;;;;;;;0.40;0.40;;;;;;;;;;7391260;19;20620;-69
2022/08/02 19:13:07;;;;;;;0.40;0.40;;;;;;;;;;7369627;19;20145;-69
2022/08/02 19:15:33;;;;;;;0.30;0.30;;;;;;;;;;7383896;19;20149;-69
2022/08/02 19:18:00;;;;;;;0.30;0.30;;;;;;;;;;7383219;19;20447;-69
2022/08/02 19:20:25;;;;;;;0.30;0.30;;;;;;;;;;7378256;19;20137;-69
2022/08/02 19:22:51;;;;;;;0.30;0.30;;;;;;;;;;7373682;19;20145;-68
2022/08/02 19:25:19;;;;;;;0.40;0.40;;;;;;;;;;7387562;19;20201;-68
2022/08/02 19:27:45;;;;;;;0.20;0.20;;;;;;;;;;7391956;19;20121;-69
2022/08/02 19:30:11;;;;;;;0.30;0.30;;;;;;;;;;7393217;19;20129;-68
2022/08/02 19:32:36;;;;;;;0.30;0.30;;;;;;;;;;7389702;19;20162;-68
2022/08/02 19:35:03;;;;;;;0.70;0.70;;;;;;;;;;7393486;19;20133;-68
2022/08/02 19:37:28;;;;;;;0.30;0.30;;;;;;;;;;7393243;19;20251;-69
2022/08/02 19:39:54;;;;;;;0.60;0.60;;;;;;;;;;7390399;19;20137;-69
2022/08/02 19:42:20;;;;;;;0.30;0.30;;;;;;;;;;7386276;19;20223;-69
2022/08/02 19:44:45;;;;;;;0.40;0.40;;;;;;;;;;7389596;19;20135;-68
2022/08/02 19:47:10;;;;;;;0.40;0.40;;;;;;;;;;7391657;19;20113;-68
2022/08/02 19:49:36;;;;;;;0.50;0.50;;;;;;;;;;7389604;19;20983;-69
2022/08/02 19:52:02;;;;;;;0.47;0.47;;;;;;;;;;7389886;19;20574;-69
2022/08/02 19:54:28;;;;;;;0.30;0.30;;;;;;;;;;7389654;19;20128;-68
2022/08/02 19:56:53;;;;;;;0.30;0.30;;;;;;;;;;7390143;19;20121;-68
2022/08/02 19:59:18;;;;;;;0.38;0.38;;;;;;;;;;7393545;19;20140;-68
2022/08/02 20:01:44;;;;;;;0.50;0.50;;;;;;;;;;7383589;19;20148;-68
2022/08/02 20:04:09;;;;;;;0.38;0.38;;;;;;;;;;7391028;19;20125;-68
2022/08/02 20:06:35;;;;;;;0.30;0.30;;;;;;;;;;7391409;19;20125;-68
2022/08/02 20:09:01;;;;;;;0.30;0.30;;;;;;;;;;7388268;19;20124;-68
2022/08/02 20:11:26;;;;;;;0.30;0.30;;;;;;;;;;7389579;19;20525;-69
2022/08/02 20:13:52;;;;;;;0.30;0.30;;;;;;;;;;7386998;19;20133;-68
2022/08/02 20:16:17;;;;;;;0.40;0.40;;;;;;;;;;7389316;19;20125;-69
2022/08/02 20:18:43;;;;;;;0.52;0.40;;;;;;;;;;7383936;19;20113;-68
2022/08/02 20:21:08;;;;;;;0.70;0.70;;;;;;;;;;7389351;19;20121;-68
2022/08/02 20:23:33;;;;;;;0.50;0.50;;;;;;;;;;7392409;19;20118;-69
2022/08/02 20:25:58;;;;;;;0.40;0.40;;;;;;;;;;7392366;19;20605;-68
2022/08/02 20:28:24;;;;;;;0.30;0.30;;;;;;;;;;7392854;19;20442;-69
2022/08/02 20:30:49;;;;;;;0.30;0.30;;;;;;;;;;7393201;19;20113;-68
2022/08/02 20:33:16;;;;;;;0.30;0.30;;;;;;;;;;7387740;19;20145;-68
2022/08/02 20:35:41;;;;;;;0.47;0.47;;;;;;;;;;7389352;19;20124;-69
2022/08/02 20:38:06;;;;;;;0.30;0.30;;;;;;;;;;7393139;19;20532;-69
2022/08/02 20:40:33;;;;;;;0.40;0.40;;;;;;;;;;7391144;19;20138;-68
2022/08/02 20:42:58;;;;;;;0.30;0.30;;;;;;;;;;7386806;19;20242;-68
2022/08/02 20:45:25;;;;;;;0.45;0.45;;;;;;;;;;7389878;19;20834;-68
2022/08/02 20:47:54;;;;;;;0.30;0.30;;;;;;;;;;7391934;19;20450;-69
2022/08/02 20:53:08;;;;;;;0.32;0.32;;;;;;;;;;7389885;19;20916;-69
2022/08/02 20:55:42;;;;;;;0.30;0.30;;;;;;;;;;7391551;19;20494;-68
2022/08/02 20:58:08;;;;;;;0.30;0.30;;;;;;;;;;7390047;19;20125;-68
2022/08/02 21:00:33;;;;;;;0.30;0.30;;;;;;;;;;7389545;19;20133;-68
2022/08/02 21:03:00;;;;;;;0.40;0.40;;;;;;;;;;7388937;19;20560;-68
2022/08/02 21:05:25;;;;;;;0.20;0.20;;;;;;;;;;7390613;19;20116;-68
2022/08/02 21:07:50;;;;;;;0.40;0.40;;;;;;;;;;7392771;19;20126;-68
2022/08/02 21:10:16;;;;;;;0.30;0.30;;;;;;;;;;7391611;19;20627;-68
2022/08/02 21:12:41;;;;;;;0.35;0.35;;;;;;;;;;7387847;19;20670;-68
2022/08/02 21:15:07;;;;;;;0.40;0.40;;;;;;;;;;7390566;19;20587;-68
2022/08/02 21:17:33;;;;;;;0.45;0.45;;;;;;;;;;7390296;19;20140;-68
2022/08/02 21:19:58;;;;;;;0.30;0.30;;;;;;;;;;7389698;19;20132;-68
2022/08/02 21:22:23;;;;;;;0.40;0.40;;;;;;;;;;7389027;19;20477;-68
2022/08/02 21:24:48;;;;;;;0.30;0.30;;;;;;;;;;7389553;19;20125;-68
2022/08/02 21:27:14;;;;;;;0.60;0.60;;;;;;;;;;7390929;19;20497;-68
2022/08/02 21:29:39;;;;;;;0.50;0.50;;;;;;;;;;7388553;19;20145;-68
2022/08/02 21:32:05;;;;;;;0.40;0.40;;;;;;;;;;7390808;19;20153;-68
2022/08/02 21:34:30;;;;;;;0.30;0.30;;;;;;;;;;7388662;19;20170;-68
2022/08/02 21:36:55;;;;;;;0.68;0.68;;;;;;;;;;7390085;19;20137;-69
2022/08/02 21:39:21;;;;;;;0.50;0.50;;;;;;;;;;7390463;19;20470;-68
2022/08/02 21:41:46;;;;;;;0.30;0.30;;;;;;;;;;7388299;19;20654;-68
2022/08/02 21:44:13;;;;;;;0.30;0.30;;;;;;;;;;7388036;19;20129;-68
2022/08/02 21:46:39;;;;;;;0.65;0.65;;;;;;;;;;7390521;19;20127;-68
2022/08/02 21:49:04;;;;;;;0.40;0.40;;;;;;;;;;7391677;19;20185;-68
2022/08/02 21:51:30;;;;;;;0.40;0.40;;;;;;;;;;7390140;19;20137;-68
2022/08/02 21:53:56;;;;;;;0.40;0.40;;;;;;;;;;7389810;19;20198;-68
2022/08/02 21:56:21;;;;;;;0.30;0.30;;;;;;;;;;7389331;19;20108;-68
2022/08/02 21:58:46;;;;;;;0.50;0.50;;;;;;;;;;7390478;19;20137;-68
2022/08/02 22:01:11;;;;;;;0.30;0.30;;;;;;;;;;7388174;19;20489;-68
2022/08/02 22:03:37;;;;;;;0.30;0.30;;;;;;;;;;7383186;19;20120;-68
2022/08/02 22:06:02;;;;;;;0.40;0.40;;;;;;;;;;7389209;19;20120;-68
2022/08/02 22:08:28;;;;;;;0.30;0.30;;;;;;;;;;7387169;19;20489;-68
2022/08/02 22:11:02;;;;;;;0.35;0.35;;;;;;;;;;7387304;19;20116;-68
2022/08/02 22:13:32;;;;;;;0.40;0.40;;;;;;;;;;7387802;19;20177;-68
2022/08/02 22:15:57;;;;;;;0.32;0.32;;;;;;;;;;7388025;19;20153;-68
2022/08/02 22:18:24;;;;;;;0.50;0.50;;;;;;;;;;7389210;19;20125;-68
2022/08/02 22:20:50;;;;;;;0.45;0.45;;;;;;;;;;7386002;19;20133;-68
2022/08/02 22:23:15;;;;;;;0.65;0.52;;;;;;;;;;7387052;19;20156;-68
2022/08/02 22:25:41;;;;;;;0.40;0.40;;;;;;;;;;7386863;19;20125;-68
2022/08/02 22:28:08;;;;;;;0.20;0.20;;;;;;;;;;7389342;19;20490;-68
2022/08/02 22:30:33;;;;;;;0.45;0.45;;;;;;;;;;7388554;19;20142;-68
2022/08/02 22:36:00;;;;;;;0.30;0.30;;;;;;;;;;7385127;19;20133;-68
2022/08/02 22:38:25;;;;;;;0.30;0.30;;;;;;;;;;7386743;19;20639;-68
2022/08/02 22:40:52;;;;;;;0.30;0.30;;;;;;;;;;7386184;19;20117;-68
2022/08/02 22:43:17;;;;;;;0.32;0.32;;;;;;;;;;7385301;19;20148;-68
2022/08/02 22:45:43;;;;;;;0.20;0.20;;;;;;;;;;7387248;19;20113;-68
2022/08/02 22:48:08;;;;;;;0.35;0.35;;;;;;;;;;7387339;19;20139;-69
2022/08/02 22:50:34;;;;;;;0.70;0.70;;;;;;;;;;7388113;19;20610;-68
2022/08/02 22:53:00;;;;;;;0.30;0.30;;;;;;;;;;7385790;19;20152;-68
2022/08/02 22:55:26;;;;;;;0.28;0.28;;;;;;;;;;7387179;19;20115;-68
2022/08/02 22:57:52;;;;;;;0.30;0.30;;;;;;;;;;7389459;19;20138;-68
2022/08/02 23:00:18;;;;;;;0.35;0.35;;;;;;;;;;7385994;19;20201;-68
2022/08/02 23:02:43;;;;;;;0.30;0.30;;;;;;;;;;7385889;19;20439;-68
2022/08/02 23:05:08;;;;;;;0.52;0.52;;;;;;;;;;7388031;19;20124;-68
2022/08/02 23:07:34;;;;;;;0.40;0.40;;;;;;;;;;7386403;19;20125;-68
2022/08/02 23:09:59;;;;;;;0.40;0.40;;;;;;;;;;7388392;19;20109;-68
2022/08/02 23:12:25;;;;;;;1.75;1.00;;;;;;;;;;7385297;19;20141;-68
2022/08/02 23:14:51;;;;;;;0.40;0.40;;;;;;;;;;7386515;19;20121;-68
2022/08/02 23:20:03;;;;;;;0.40;0.40;;;;;;;;;;7385000;19;20132;-68
2022/08/02 23:22:28;;;;;;;0.50;0.50;;;;;;;;;;7385434;19;20172;-68
2022/08/02 23:24:54;;;;;;;0.30;0.30;;;;;;;;;;7386742;19;20173;-68
2022/08/02 23:27:20;;;;;;;0.30;0.30;;;;;;;;;;7389328;19;20113;-68
2022/08/02 23:29:46;;;;;;;0.30;0.30;;;;;;;;;;7386199;19;20467;-68
2022/08/02 23:32:11;;;;;;;0.30;0.30;;;;;;;;;;7385139;19;20145;-68
2022/08/02 23:34:36;;;;;;;0.68;0.68;;;;;;;;;;7385900;19;20133;-68
2022/08/02 23:37:02;;;;;;;0.75;0.50;;;;;;;;;;7386405;19;20130;-68
2022/08/02 23:39:34;;;;;;;0.30;0.30;;;;;;;;;;7384506;19;20141;-68
2022/08/02 23:41:59;;;;;;;0.30;0.30;;;;;;;;;;7384183;19;20161;-68
2022/08/02 23:44:26;;;;;;;0.40;0.40;;;;;;;;;;7386948;19;20129;-68
2022/08/02 23:46:52;;;;;;;0.30;0.30;;;;;;;;;;7395123;19;20128;-68
2022/08/02 23:49:17;;;;;;;1.05;1.05;;;;;;;;;;7392944;19;20508;-69
2022/08/02 23:51:44;;;;;;;0.20;0.20;;;;;;;;;;7392354;19;20363;-68
2022/08/02 23:54:10;;;;;;;0.30;0.30;;;;;;;;;;7391417;19;20152;-68
2022/08/02 23:56:36;;;;;;;0.65;0.65;;;;;;;;;;7392201;19;20579;-68
2022/08/02 23:59:02;;;;;;;0.40;0.40;;;;;;;;;;7393223;19;20137;-68
